createdAt,value
2019-03-24T00:01:46.177Z,10.60
2019-03-24T00:04:14.425Z,10.60
2019-03-24T00:06:42.722Z,10.50
2019-03-24T00:09:11.019Z,10.40
2019-03-24T00:11:39.249Z,10.30
2019-03-24T00:14:07.607Z,10.30
2019-03-24T00:16:35.938Z,10.20
2019-03-24T00:19:04.239Z,10.10
2019-03-24T00:21:32.542Z,10.00
2019-03-24T00:24:00.835Z,10.00
2019-03-24T00:26:29.122Z,10.00
2019-03-24T00:28:57.373Z,10.00
2019-03-24T00:31:25.628Z,10.00
2019-03-24T00:33:53.950Z,10.00
2019-03-24T00:36:22.200Z,10.00
2019-03-24T00:38:50.473Z,10.00
2019-03-24T00:41:18.765Z,10.00
2019-03-24T00:43:47.047Z,9.90
2019-03-24T00:46:15.303Z,9.80
2019-03-24T00:48:43.562Z,9.70
2019-03-24T00:51:11.821Z,9.60
2019-03-24T00:53:40.123Z,9.60
2019-03-24T00:56:08.379Z,9.60
2019-03-24T00:58:36.721Z,9.60
2019-03-24T01:01:04.980Z,9.70
2019-03-24T01:03:33.256Z,9.60
2019-03-24T01:06:01.946Z,9.60
2019-03-24T01:08:30.301Z,9.50
2019-03-24T01:10:58.549Z,9.50
2019-03-24T01:13:27.155Z,9.50
2019-03-24T01:15:55.408Z,9.60
2019-03-24T01:18:23.679Z,9.60
2019-03-24T01:20:51.938Z,9.60
2019-03-24T01:23:20.241Z,9.60
2019-03-24T01:25:48.526Z,9.60
2019-03-24T01:28:16.815Z,9.60
2019-03-24T01:30:45.073Z,9.50
2019-03-24T01:33:13.344Z,9.50
2019-03-24T01:35:41.635Z,9.40
2019-03-24T01:38:09.880Z,9.40
2019-03-24T01:40:38.159Z,9.40
2019-03-24T01:43:06.411Z,9.40
2019-03-24T01:45:34.675Z,9.40
2019-03-24T01:48:02.946Z,9.40
2019-03-24T01:50:31.233Z,9.40
2019-03-24T01:52:59.478Z,9.40
2019-03-24T01:55:27.761Z,9.40
2019-03-24T01:57:56.098Z,9.30
2019-03-24T02:00:24.472Z,9.30
2019-03-24T02:02:52.729Z,9.30
2019-03-24T02:05:20.998Z,9.30
2019-03-24T02:07:49.271Z,9.30
2019-03-24T02:10:17.536Z,9.20
2019-03-24T02:12:45.793Z,9.20
2019-03-24T02:15:14.074Z,9.20
2019-03-24T02:17:42.333Z,9.20
2019-03-24T02:20:10.905Z,9.20
2019-03-24T02:22:39.177Z,9.20
2019-03-24T02:25:07.470Z,9.10
2019-03-24T02:27:35.709Z,9.00
2019-03-24T02:30:04.514Z,8.90
2019-03-24T02:32:32.764Z,8.80
2019-03-24T02:35:01.051Z,8.70
2019-03-24T02:37:29.308Z,8.60
2019-03-24T02:39:57.630Z,8.60
2019-03-24T02:42:25.918Z,8.60
2019-03-24T02:44:54.162Z,8.60
2019-03-24T02:47:22.465Z,8.60
2019-03-24T02:49:50.701Z,8.60
2019-03-24T02:52:18.966Z,8.60
2019-03-24T02:54:47.241Z,8.60
2019-03-24T02:57:15.504Z,8.60
2019-03-24T02:59:43.817Z,8.60
2019-03-24T03:02:12.212Z,8.60
2019-03-24T03:04:40.675Z,8.60
2019-03-24T03:07:09.245Z,8.60
2019-03-24T03:09:37.643Z,8.60
2019-03-24T03:12:06.287Z,8.50
2019-03-24T03:14:34.500Z,8.40
2019-03-24T03:17:02.770Z,8.40
2019-03-24T03:19:31.114Z,8.40
2019-03-24T03:21:59.394Z,8.30
2019-03-24T03:24:27.847Z,8.30
2019-03-24T03:26:56.203Z,8.20
2019-03-24T03:29:24.443Z,8.10
2019-03-24T03:31:52.717Z,8.20
2019-03-24T03:34:20.982Z,8.10
2019-03-24T03:36:49.255Z,8.10
2019-03-24T03:39:17.498Z,8.00
2019-03-24T03:41:45.815Z,8.00
2019-03-24T03:44:14.065Z,8.00
2019-03-24T03:46:52.606Z,8.00
2019-03-24T03:49:12.418Z,8.10
2019-03-24T03:51:40.694Z,8.10
2019-03-24T03:54:08.970Z,8.10
2019-03-24T03:56:37.190Z,8.10
2019-03-24T03:59:05.487Z,8.10
2019-03-24T04:01:33.743Z,8.10
2019-03-24T04:04:01.982Z,8.10
2019-03-24T04:06:30.282Z,8.10
2019-03-24T04:08:58.535Z,8.10
2019-03-24T04:11:26.781Z,8.00
2019-03-24T04:13:55.098Z,8.00
2019-03-24T04:16:23.393Z,7.90
2019-03-24T04:18:51.666Z,7.90
2019-03-24T04:21:19.916Z,7.80
2019-03-24T04:23:48.222Z,7.70
2019-03-24T04:26:16.476Z,7.60
2019-03-24T04:28:44.745Z,7.50
2019-03-24T04:31:12.988Z,7.50
2019-03-24T04:33:41.305Z,7.50
2019-03-24T04:36:09.550Z,7.40
2019-03-24T04:38:37.809Z,7.40
2019-03-24T04:41:06.071Z,7.40
2019-03-24T04:43:34.325Z,7.30
2019-03-24T04:46:02.562Z,7.20
2019-03-24T04:48:30.835Z,7.20
2019-03-24T04:50:59.081Z,7.20
2019-03-24T04:53:27.353Z,7.20
2019-03-24T04:55:55.604Z,7.20
2019-03-24T04:58:23.889Z,7.30
2019-03-24T05:00:52.195Z,7.30
2019-03-24T05:03:20.453Z,7.30
2019-03-24T05:05:48.703Z,7.20
2019-03-24T05:08:17.040Z,7.20
2019-03-24T05:10:45.277Z,7.10
2019-03-24T05:13:13.524Z,7.10
2019-03-24T05:15:41.805Z,7.00
2019-03-24T05:18:10.025Z,7.00
2019-03-24T05:20:38.291Z,7.00
2019-03-24T05:23:06.545Z,7.00
2019-03-24T05:25:34.821Z,7.00
2019-03-24T05:28:03.088Z,7.00
2019-03-24T05:30:31.369Z,7.00
2019-03-24T05:32:59.614Z,7.00
2019-03-24T05:35:27.910Z,7.10
2019-03-24T05:37:56.165Z,7.10
2019-03-24T05:40:24.450Z,7.20
2019-03-24T05:42:52.707Z,7.20
2019-03-24T05:45:21.062Z,7.30
2019-03-24T05:47:49.360Z,7.30
2019-03-24T05:50:17.683Z,7.40
2019-03-24T05:52:45.965Z,7.30
2019-03-24T05:55:14.299Z,7.30
2019-03-24T05:57:42.594Z,7.30
2019-03-24T06:00:10.950Z,7.30
2019-03-24T06:02:39.276Z,7.20
2019-03-24T06:05:08.157Z,7.10
2019-03-24T06:07:36.468Z,7.10
2019-03-24T06:10:05.668Z,7.60
2019-03-24T06:12:33.989Z,8.20
2019-03-24T06:15:02.313Z,8.50
2019-03-24T06:17:30.670Z,9.00
2019-03-24T06:19:58.997Z,10.00
2019-03-24T06:22:27.267Z,11.50
2019-03-24T06:24:55.573Z,12.70
2019-03-24T06:27:23.868Z,13.90
2019-03-24T06:29:52.190Z,14.90
2019-03-24T06:32:20.583Z,15.80
2019-03-24T06:34:48.872Z,16.40
2019-03-24T06:37:17.187Z,16.90
2019-03-24T06:39:45.487Z,17.50
2019-03-24T06:42:13.813Z,18.10
2019-03-24T06:44:42.105Z,18.60
2019-03-24T06:47:10.433Z,19.00
2019-03-24T06:49:38.771Z,19.40
2019-03-24T06:52:07.167Z,19.90
2019-03-24T06:54:35.545Z,20.20
2019-03-24T06:57:03.895Z,20.40
2019-03-24T06:59:32.209Z,20.40
2019-03-24T07:02:00.563Z,20.10
2019-03-24T07:04:28.968Z,19.40
2019-03-24T07:06:57.317Z,18.40
2019-03-24T07:09:25.636Z,17.20
2019-03-24T07:11:53.936Z,15.90
2019-03-24T07:14:22.255Z,14.70
2019-03-24T07:16:50.607Z,13.70
2019-03-24T07:19:18.932Z,13.00
2019-03-24T07:21:47.252Z,12.50
2019-03-24T07:24:15.574Z,12.00
2019-03-24T07:26:43.911Z,11.60
2019-03-24T07:29:12.228Z,11.40
2019-03-24T07:31:40.569Z,11.20
2019-03-24T07:34:08.853Z,11.20
2019-03-24T07:36:37.185Z,11.00
2019-03-24T07:39:06.577Z,11.00
2019-03-24T07:41:34.899Z,10.90
2019-03-24T07:44:03.205Z,11.00
2019-03-24T07:46:31.529Z,11.00
2019-03-24T07:48:59.857Z,11.00
2019-03-24T07:51:28.149Z,11.00
2019-03-24T07:53:56.483Z,11.00
2019-03-24T07:56:24.825Z,10.90
2019-03-24T07:58:53.135Z,10.90
2019-03-24T08:01:21.511Z,11.00
2019-03-24T08:03:49.839Z,11.00
2019-03-24T08:06:18.147Z,11.00
2019-03-24T08:08:46.431Z,11.10
2019-03-24T08:11:14.732Z,11.10
2019-03-24T08:13:53.363Z,11.20
2019-03-24T08:16:13.540Z,11.30
2019-03-24T08:18:41.881Z,11.40
2019-03-24T08:21:10.180Z,11.40
2019-03-24T08:23:38.598Z,11.50
2019-03-24T08:26:06.912Z,11.60
2019-03-24T08:28:35.255Z,11.70
2019-03-24T08:31:03.576Z,11.80
2019-03-24T08:33:31.933Z,11.80
2019-03-24T08:36:00.214Z,11.90
2019-03-24T08:38:28.571Z,11.80
2019-03-24T08:40:56.876Z,12.00
2019-03-24T08:43:25.190Z,12.10
2019-03-24T08:45:53.520Z,12.20
2019-03-24T08:48:21.814Z,12.40
2019-03-24T08:50:50.088Z,12.50
2019-03-24T08:53:18.415Z,12.60
2019-03-24T08:55:46.710Z,12.70
2019-03-24T08:58:15.011Z,12.80
2019-03-24T09:00:43.338Z,12.90
2019-03-24T09:03:11.731Z,13.00
2019-03-24T09:05:40.078Z,13.10
2019-03-24T09:08:08.385Z,13.20
2019-03-24T09:10:36.865Z,13.20
2019-03-24T09:13:05.172Z,13.20
2019-03-24T09:15:33.479Z,13.30
2019-03-24T09:18:01.721Z,13.40
2019-03-24T09:20:30.039Z,13.50
2019-03-24T09:22:58.294Z,13.60
2019-03-24T09:25:26.576Z,13.80
2019-03-24T09:27:55.085Z,13.90
2019-03-24T09:30:30.845Z,13.90
2019-03-24T09:32:59.109Z,14.00
2019-03-24T09:35:27.895Z,14.00
2019-03-24T09:37:56.399Z,14.10
2019-03-24T09:40:28.986Z,14.20
2019-03-24T09:42:58.295Z,14.20
2019-03-24T09:45:26.584Z,14.30
2019-03-24T09:47:54.904Z,14.40
2019-03-24T09:50:23.180Z,14.50
2019-03-24T09:52:51.529Z,14.50
2019-03-24T09:55:19.779Z,14.40
2019-03-24T09:57:48.927Z,14.40
2019-03-24T10:00:17.397Z,14.50
2019-03-24T10:02:45.716Z,14.70
2019-03-24T10:05:14.182Z,14.90
2019-03-24T10:07:42.626Z,14.90
2019-03-24T10:10:11.132Z,14.90
2019-03-24T10:12:39.496Z,15.10
2019-03-24T10:15:08.007Z,15.10
2019-03-24T10:17:36.367Z,15.20
2019-03-24T10:20:04.774Z,15.30
2019-03-24T10:22:33.157Z,15.40
2019-03-24T10:25:01.634Z,15.40
2019-03-24T10:27:29.932Z,15.50
2019-03-24T10:29:58.385Z,15.70
2019-03-24T10:32:26.669Z,15.80
2019-03-24T10:34:54.951Z,15.90
2019-03-24T10:37:23.487Z,16.00
2019-03-24T10:39:51.945Z,16.10
2019-03-24T10:42:20.221Z,16.10
2019-03-24T10:44:48.609Z,16.10
2019-03-24T10:47:16.877Z,16.10
2019-03-24T10:49:45.356Z,16.10
2019-03-24T10:52:13.637Z,16.20
2019-03-24T10:54:41.901Z,16.30
2019-03-24T10:57:10.174Z,16.40
2019-03-24T10:59:38.424Z,16.50
2019-03-24T11:02:06.684Z,16.60
2019-03-24T11:04:35.030Z,16.60
2019-03-24T11:07:03.293Z,16.60
2019-03-24T11:09:31.561Z,16.60
2019-03-24T11:11:59.889Z,16.60
2019-03-24T11:14:28.185Z,16.60
2019-03-24T11:16:56.433Z,16.80
2019-03-24T11:19:35.374Z,17.00
2019-03-24T11:21:55.289Z,17.00
2019-03-24T11:24:23.556Z,17.00
2019-03-24T11:26:51.877Z,17.10
2019-03-24T11:29:20.202Z,17.00
2019-03-24T11:31:48.517Z,17.10
2019-03-24T11:34:16.844Z,17.20
2019-03-24T11:36:45.137Z,17.30
2019-03-24T11:39:13.427Z,17.40
2019-03-24T11:41:41.746Z,17.50
2019-03-24T11:44:10.048Z,17.50
2019-03-24T11:46:38.322Z,17.50
2019-03-24T11:49:14.891Z,17.50
2019-03-24T11:51:43.309Z,17.50
2019-03-24T11:54:11.582Z,17.50
2019-03-24T11:56:39.876Z,17.60
2019-03-24T11:59:08.255Z,17.60
2019-03-24T12:01:38.525Z,17.70
2019-03-24T12:04:06.853Z,17.70
2019-03-24T12:06:35.146Z,17.80
2019-03-24T12:09:04.692Z,17.80
2019-03-24T12:11:33.041Z,18.00
2019-03-24T12:14:01.553Z,18.10
2019-03-24T12:16:29.886Z,18.10
2019-03-24T12:18:58.227Z,18.10
2019-03-24T12:21:26.541Z,18.20
2019-03-24T12:23:54.913Z,18.20
2019-03-24T12:31:46.779Z,18.30
2019-03-24T12:38:07.834Z,18.50
2019-03-24T12:41:43.490Z,18.60
2019-03-24T12:44:48.155Z,18.70
2019-03-24T12:50:38.272Z,18.80
2019-03-24T12:54:04.087Z,18.80
2019-03-24T13:08:41.046Z,19.20
2019-03-24T13:11:35.434Z,19.30
2019-03-24T13:17:42.141Z,19.50
2019-03-24T13:20:22.660Z,19.50
2019-03-24T13:22:45.030Z,19.50
2019-03-24T13:25:14.417Z,19.50
2019-03-24T13:27:45.687Z,19.60
2019-03-24T13:30:24.092Z,19.70
2019-03-24T13:34:34.873Z,19.70
2019-03-24T13:36:34.686Z,19.70
2019-03-24T13:39:21.603Z,19.80
2019-03-24T13:41:52.941Z,19.90
2019-03-24T13:44:22.317Z,20.00
2019-03-24T13:46:51.740Z,20.00
2019-03-24T13:50:12.662Z,20.10
2019-03-24T13:52:42.367Z,20.10
2019-03-24T13:55:14.741Z,20.10
2019-03-24T13:57:55.000Z,20.20
2019-03-24T14:00:24.428Z,20.20
2019-03-24T14:02:53.757Z,20.30
2019-03-24T14:05:23.053Z,20.30
2019-03-24T14:07:53.267Z,20.30
2019-03-24T14:10:25.532Z,20.40
2019-03-24T14:12:58.232Z,20.40
2019-03-24T14:15:27.661Z,20.50
2019-03-24T14:17:57.178Z,20.40
2019-03-24T14:20:26.800Z,20.50
2019-03-24T14:23:00.627Z,20.50
2019-03-24T14:25:29.569Z,20.50
2019-03-24T14:28:00.727Z,20.50
2019-03-24T14:30:48.263Z,20.60
2019-03-24T14:33:17.315Z,20.70
2019-03-24T14:35:49.592Z,20.70
2019-03-24T14:38:22.847Z,20.70
2019-03-24T14:40:54.042Z,20.70
2019-03-24T14:47:35.721Z,20.90
2019-03-24T14:53:34.925Z,21.00
2019-03-24T15:00:23.244Z,21.10
2019-03-24T15:03:54.316Z,20.90
2019-03-24T15:06:35.173Z,20.90
2019-03-24T15:09:45.137Z,20.90
2019-03-24T15:12:23.550Z,20.90
2019-03-24T15:20:17.944Z,20.90
2019-03-24T15:22:51.580Z,21.00
2019-03-24T15:25:22.412Z,21.00
2019-03-24T15:27:58.948Z,21.00
2019-03-24T15:31:18.666Z,21.00
2019-03-24T15:48:39.748Z,21.00
2019-03-24T15:52:23.721Z,21.00
2019-03-24T15:55:09.040Z,21.00
2019-03-24T16:27:54.560Z,20.70
2019-03-24T16:31:13.844Z,20.70
2019-03-24T16:33:54.615Z,20.70
2019-03-24T16:48:36.767Z,20.60
2019-03-24T16:55:13.392Z,20.50
2019-03-24T16:58:42.188Z,20.50
2019-03-24T17:02:04.425Z,20.40
2019-03-24T17:05:34.709Z,20.40
2019-03-24T17:08:10.714Z,20.30
2019-03-24T17:10:40.323Z,20.30
2019-03-24T17:20:51.653Z,20.00
2019-03-24T17:24:27.433Z,19.90
2019-03-24T17:34:25.720Z,19.40
2019-03-24T18:16:41.942Z,17.80
2019-03-24T18:19:48.323Z,17.60
2019-03-24T18:23:18.654Z,17.60
2019-03-24T18:25:54.595Z,17.50
2019-03-24T18:28:35.028Z,17.30
2019-03-24T18:31:10.420Z,17.30
2019-03-24T18:37:50.353Z,17.30
2019-03-24T18:40:38.652Z,17.20
2019-03-24T18:43:23.312Z,17.10
2019-03-24T18:49:32.763Z,16.80
2019-03-24T18:52:01.863Z,16.60
2019-03-24T18:54:31.188Z,16.50
2019-03-24T18:57:00.217Z,16.40
2019-03-24T18:59:29.443Z,16.30
2019-03-24T19:01:58.275Z,16.20
2019-03-24T19:04:27.305Z,16.10
2019-03-24T19:06:56.629Z,16.10
2019-03-24T19:09:25.597Z,16.00
2019-03-24T19:11:54.581Z,16.00
2019-03-24T19:14:23.521Z,15.90
2019-03-24T19:16:52.450Z,15.90
2019-03-24T19:19:21.584Z,15.80
2019-03-24T19:22:00.131Z,15.80
2019-03-24T19:24:48.244Z,15.80
2019-03-24T19:27:24.549Z,15.80
2019-03-24T19:30:07.516Z,15.70
2019-03-24T19:32:39.478Z,15.70
2019-03-24T19:35:29.680Z,15.60
2019-03-24T19:37:59.177Z,15.60
2019-03-24T19:40:33.738Z,15.50
2019-03-24T19:43:03.355Z,15.40
2019-03-24T19:45:36.708Z,15.40
2019-03-24T19:48:07.015Z,15.40
2019-03-24T19:50:36.312Z,15.30
2019-03-24T19:53:05.663Z,15.20
2019-03-24T19:55:34.384Z,15.20
2019-03-24T19:58:03.595Z,15.10
2019-03-24T20:00:32.954Z,15.00
2019-03-24T20:03:05.026Z,15.00
2019-03-24T20:05:34.348Z,14.90
2019-03-24T20:08:03.771Z,14.90
2019-03-24T20:10:33.292Z,14.80
2019-03-24T20:13:02.916Z,14.70
2019-03-24T20:15:32.235Z,14.60
2019-03-24T20:18:03.232Z,14.50
2019-03-24T20:20:32.260Z,14.40
2019-03-24T20:23:01.585Z,14.40
2019-03-24T20:25:31.896Z,14.40
2019-03-24T20:28:04.229Z,14.30
2019-03-24T20:30:33.687Z,14.30
2019-03-24T20:33:03.116Z,14.30
2019-03-24T20:35:32.358Z,14.30
2019-03-24T20:38:04.410Z,14.40
2019-03-24T20:40:36.255Z,14.30
2019-03-24T20:43:05.681Z,14.30
2019-03-24T20:45:34.740Z,14.30
2019-03-24T20:48:04.365Z,14.20
2019-03-24T20:50:33.783Z,14.20
2019-03-24T20:53:17.330Z,14.10
2019-03-24T20:55:39.020Z,14.10
2019-03-24T20:58:08.416Z,14.00
2019-03-24T21:00:45.703Z,13.90
2019-03-24T21:03:14.859Z,13.80
2019-03-24T21:05:44.081Z,13.80
2019-03-24T21:08:13.209Z,13.70
2019-03-24T21:10:42.730Z,13.70
2019-03-24T21:13:12.351Z,13.60
2019-03-24T21:15:41.663Z,13.50
2019-03-24T21:18:11.100Z,13.40
2019-03-24T21:20:40.714Z,13.30
2019-03-24T21:23:10.038Z,13.30
2019-03-24T21:25:39.460Z,13.30
2019-03-24T21:28:11.636Z,13.30
2019-03-24T21:30:41.254Z,13.40
2019-03-24T21:33:10.874Z,13.50
2019-03-24T21:35:40.397Z,13.50
2019-03-24T21:38:09.720Z,13.60
2019-03-24T21:40:39.239Z,13.70
2019-03-24T21:43:08.460Z,13.70
2019-03-24T21:45:37.592Z,13.60
2019-03-24T21:48:06.745Z,13.60
2019-03-24T21:50:36.143Z,13.50
2019-03-24T21:53:05.764Z,13.50
2019-03-24T21:55:37.417Z,13.40
2019-03-24T21:58:06.773Z,13.40
2019-03-24T22:00:36.952Z,13.40
2019-03-24T22:03:06.697Z,13.30
2019-03-24T22:05:41.723Z,13.30
2019-03-24T22:08:12.006Z,13.30
2019-03-24T22:10:42.140Z,13.30
2019-03-24T22:13:11.464Z,13.20
2019-03-24T22:15:40.762Z,13.10
2019-03-24T22:18:09.915Z,13.10
2019-03-24T22:20:48.753Z,13.00
2019-03-24T22:23:16.330Z,13.00
2019-03-24T22:25:45.851Z,12.90
2019-03-24T22:28:19.601Z,12.90
2019-03-24T22:30:49.516Z,12.90
2019-03-24T22:33:21.493Z,12.80
2019-03-24T22:35:50.888Z,12.70
2019-03-24T22:38:20.307Z,12.60
2019-03-24T22:40:49.661Z,12.50
2019-03-24T22:43:19.380Z,12.50
2019-03-24T22:45:48.506Z,12.40
2019-03-24T22:48:18.321Z,12.40
2019-03-24T22:50:50.478Z,12.30
2019-03-24T22:53:20.706Z,12.20
2019-03-24T22:55:50.128Z,12.00
2019-03-24T22:58:19.649Z,11.90
2019-03-24T23:00:54.923Z,11.80
2019-03-24T23:03:25.654Z,11.60
2019-03-24T23:05:54.995Z,11.40
2019-03-24T23:08:25.204Z,11.30
2019-03-24T23:10:54.921Z,11.20
2019-03-24T23:13:26.999Z,11.10
2019-03-24T23:15:56.223Z,11.00
2019-03-24T23:18:28.896Z,11.00
2019-03-24T23:24:36.351Z,10.90
2019-03-24T23:27:05.257Z,10.80
2019-03-24T23:29:34.579Z,10.70
2019-03-24T23:32:03.543Z,10.70
2019-03-24T23:34:32.863Z,10.70
2019-03-24T23:37:06.415Z,10.70
2019-03-24T23:39:35.836Z,10.70
2019-03-24T23:42:05.160Z,10.70
2019-03-24T23:44:34.484Z,10.70
2019-03-24T23:47:03.514Z,10.50
2019-03-24T23:49:35.589Z,10.30
2019-03-24T23:52:07.463Z,10.20
2019-03-24T23:54:36.696Z,10.20
2019-03-24T23:57:05.726Z,10.20
2019-03-24T23:59:34.725Z,10.10
